createdAt,value
2022-09-28T00:03:19.967Z,98.18
2022-09-28T00:08:22.481Z,96.30
2022-09-28T00:13:25.563Z,94.72
2022-09-28T00:18:29.389Z,96.44
2022-09-28T00:23:31.825Z,93.97
2022-09-28T00:28:34.264Z,90.86
2022-09-28T00:33:38.047Z,90.93
2022-09-28T00:38:40.677Z,92.29
2022-09-28T00:43:43.232Z,91.41
2022-09-28T00:48:53.866Z,90.08
2022-09-28T00:53:57.482Z,91.85
2022-09-28T00:59:00.961Z,92.69
2022-09-28T01:04:05.643Z,100.00
2022-09-28T01:09:11.365Z,100.00
2022-09-28T01:14:16.526Z,100.00
2022-09-28T01:19:38.610Z,98.18
2022-09-28T01:24:44.930Z,94.61
2022-09-28T01:29:56.211Z,93.58
2022-09-28T01:35:03.618Z,93.34
2022-09-28T01:40:08.605Z,91.91
2022-09-28T01:45:18.287Z,93.15
2022-09-28T01:50:25.037Z,93.68
2022-09-28T01:55:32.435Z,97.53
2022-09-28T02:00:41.537Z,100.00
2022-09-28T02:05:50.495Z,100.00
2022-09-28T02:10:58.789Z,97.72
2022-09-28T02:16:07.375Z,98.14
2022-09-28T02:21:14.116Z,96.57
2022-09-28T02:26:22.154Z,94.57
2022-09-28T02:31:27.661Z,94.53
2022-09-28T02:36:30.619Z,93.52
2022-09-28T02:41:47.152Z,92.93
2022-09-28T02:46:58.673Z,92.28
2022-09-28T02:52:18.613Z,92.73
2022-09-28T02:57:32.966Z,92.59
2022-09-28T03:02:45.226Z,94.12
2022-09-28T03:07:56.952Z,94.80
2022-09-28T03:13:00.330Z,92.95
2022-09-28T03:18:04.874Z,94.81
2022-09-28T03:23:23.706Z,94.14
2022-09-28T03:28:28.166Z,94.51
2022-09-28T03:33:32.188Z,92.70
2022-09-28T03:38:34.859Z,92.19
2022-09-28T03:43:37.311Z,93.44
2022-09-28T03:48:41.828Z,92.62
2022-09-28T03:53:44.245Z,90.72
2022-09-28T03:58:46.845Z,92.03
2022-09-28T04:03:55.057Z,91.92
2022-09-28T04:08:57.745Z,91.71
2022-09-28T04:14:00.195Z,91.50
2022-09-28T04:19:04.395Z,90.67
2022-09-28T04:24:07.001Z,89.87
2022-09-28T04:29:19.877Z,89.08
2022-09-28T04:34:24.373Z,89.79
2022-09-28T04:39:26.810Z,90.42
2022-09-28T04:44:29.451Z,89.67
2022-09-28T04:49:35.332Z,88.92
2022-09-28T04:54:37.776Z,89.68
2022-09-28T04:59:40.317Z,89.96
2022-09-28T05:04:44.178Z,89.77
2022-09-28T05:09:46.603Z,89.95
2022-09-28T05:14:49.083Z,90.58
2022-09-28T05:19:52.868Z,90.58
2022-09-28T05:24:55.811Z,90.93
2022-09-28T05:29:58.343Z,89.14
2022-09-28T05:35:02.145Z,89.55
2022-09-28T05:40:05.395Z,88.53
2022-09-28T05:45:09.081Z,89.57
2022-09-28T05:50:15.861Z,89.34
2022-09-28T05:55:18.282Z,89.28
2022-09-28T06:00:20.978Z,90.21
2022-09-28T06:05:25.434Z,94.49
2022-09-28T06:10:29.477Z,93.99
2022-09-28T06:15:33.776Z,93.03
2022-09-28T06:20:39.748Z,92.42
2022-09-28T06:25:42.686Z,93.08
2022-09-28T06:30:45.815Z,94.31
2022-09-28T06:35:49.623Z,94.92
2022-09-28T06:40:52.169Z,95.30
2022-09-28T06:45:55.313Z,96.27
2022-09-28T06:50:59.133Z,96.82
2022-09-28T06:56:02.498Z,95.20
2022-09-28T07:01:05.736Z,94.07
2022-09-28T07:06:13.124Z,96.05
2022-09-28T07:11:15.520Z,96.18
2022-09-28T07:16:19.760Z,97.49
2022-09-28T07:21:30.209Z,100.00
2022-09-28T07:26:34.011Z,100.00
2022-09-28T07:31:36.451Z,99.29
2022-09-28T07:36:40.287Z,99.59
2022-09-28T07:41:43.891Z,100.00
2022-09-28T07:46:46.577Z,99.29
2022-09-28T07:51:50.357Z,100.00
2022-09-28T07:56:52.993Z,100.00
2022-09-28T08:01:55.430Z,96.51
2022-09-28T08:06:59.719Z,96.44
2022-09-28T08:12:04.028Z,94.85
2022-09-28T08:17:08.213Z,95.71
2022-09-28T08:22:11.987Z,94.12
2022-09-28T08:27:15.241Z,96.69
2022-09-28T08:32:19.607Z,96.30
2022-09-28T08:37:26.295Z,93.21
2022-09-28T08:42:36.349Z,91.45
2022-09-28T08:48:07.886Z,94.88
2022-09-28T08:53:26.882Z,90.95
2022-09-28T08:58:34.389Z,89.23
2022-09-28T09:03:39.743Z,90.99
2022-09-28T09:08:55.536Z,93.28
2022-09-28T09:14:31.815Z,90.32
2022-09-28T09:19:37.220Z,91.66
2022-09-28T09:24:49.496Z,90.93
2022-09-28T09:30:04.734Z,93.34
2022-09-28T09:35:26.502Z,94.07
2022-09-28T09:40:58.373Z,93.97
2022-09-28T09:46:14.997Z,91.46
2022-09-28T09:51:25.193Z,92.58
2022-09-28T09:56:35.575Z,90.52
2022-09-28T10:01:41.124Z,92.62
2022-09-28T10:06:44.745Z,90.75
2022-09-28T10:11:50.401Z,92.47
2022-09-28T10:16:55.346Z,92.24
2022-09-28T10:21:58.568Z,91.96
2022-09-28T10:27:06.825Z,90.94
2022-09-28T10:32:20.374Z,91.28
2022-09-28T10:37:24.305Z,94.07
2022-09-28T10:42:31.324Z,93.07
2022-09-28T10:47:35.950Z,89.75
2022-09-28T10:52:41.560Z,86.09
2022-09-28T10:57:45.386Z,91.24
2022-09-28T11:02:47.958Z,87.43
2022-09-28T11:07:52.336Z,91.30
2022-09-28T11:12:57.433Z,86.61
2022-09-28T11:18:19.945Z,84.53
2022-09-28T11:23:28.198Z,83.82
2022-09-28T11:28:34.775Z,83.90
2022-09-28T11:33:39.881Z,86.54
2022-09-28T11:38:53.644Z,85.28
2022-09-28T11:44:22.481Z,86.84
2022-09-28T11:49:32.559Z,89.35
2022-09-28T11:54:41.890Z,87.90
2022-09-28T11:59:56.390Z,85.69
2022-09-28T12:05:08.569Z,79.73
2022-09-28T12:10:18.982Z,74.12
2022-09-28T12:15:27.176Z,72.21
2022-09-28T12:20:33.520Z,57.56
2022-09-28T12:25:42.724Z,52.24
2022-09-28T12:30:48.838Z,54.39
2022-09-28T12:36:07.027Z,47.25
2022-09-28T12:41:22.662Z,51.56
2022-09-28T12:46:38.127Z,60.12
2022-09-28T12:51:49.581Z,62.15
2022-09-28T12:57:04.657Z,58.18
2022-09-28T13:02:42.989Z,62.10
2022-09-28T13:07:54.054Z,58.20
2022-09-28T13:13:14.710Z,57.21
2022-09-28T13:18:27.251Z,61.27
2022-09-28T13:23:35.128Z,56.88
2022-09-28T13:28:39.772Z,56.40
2022-09-28T13:33:46.657Z,55.98
2022-09-28T13:38:52.790Z,58.84
2022-09-28T13:44:28.413Z,62.36
2022-09-28T13:49:45.521Z,62.58
2022-09-28T13:54:57.070Z,65.02
2022-09-28T14:00:08.583Z,67.57
2022-09-28T14:05:41.815Z,66.79
2022-09-28T14:10:52.277Z,69.17
2022-09-28T14:15:54.828Z,69.77
2022-09-28T14:21:24.177Z,67.93
2022-09-28T14:26:57.879Z,68.34
2022-09-28T14:32:06.566Z,69.45
2022-09-28T14:37:39.411Z,70.28
2022-09-28T14:43:24.877Z,68.46
2022-09-28T14:48:45.893Z,70.42
2022-09-28T14:53:51.074Z,73.21
2022-09-28T14:58:57.778Z,72.75
2022-09-28T15:04:05.586Z,72.27
2022-09-28T15:09:29.101Z,74.06
2022-09-28T15:14:34.387Z,75.92
2022-09-28T15:19:51.881Z,72.88
2022-09-28T15:25:02.024Z,72.50
2022-09-28T15:30:20.095Z,74.19
2022-09-28T15:35:27.526Z,75.07
2022-09-28T15:40:34.343Z,75.73
2022-09-28T15:45:40.009Z,77.35
2022-09-28T15:50:57.994Z,76.64
2022-09-28T15:56:09.706Z,75.42
2022-09-28T16:01:26.749Z,75.96
2022-09-28T16:06:30.869Z,76.13
2022-09-28T16:11:39.914Z,75.72
2022-09-28T16:16:47.315Z,73.88
2022-09-28T16:21:53.483Z,72.51
2022-09-28T16:26:58.999Z,73.11
2022-09-28T16:32:37.651Z,72.83
2022-09-28T16:37:42.713Z,72.74
2022-09-28T16:42:49.137Z,74.98
2022-09-28T16:47:53.092Z,77.44
2022-09-28T16:53:21.158Z,80.40
2022-09-28T16:58:25.156Z,78.90
2022-09-28T17:03:29.245Z,81.46
2022-09-28T17:08:35.464Z,88.51
2022-09-28T17:13:38.308Z,90.17
2022-09-28T17:18:41.517Z,90.75
2022-09-28T17:23:46.596Z,94.02
2022-09-28T17:28:49.051Z,94.56
2022-09-28T17:33:52.111Z,94.82
2022-09-28T17:38:57.171Z,91.87
2022-09-28T17:44:03.037Z,89.73
2022-09-28T17:49:07.458Z,88.71
2022-09-28T17:54:12.951Z,87.35
2022-09-28T17:59:18.485Z,88.14
2022-09-28T18:04:47.184Z,91.50
2022-09-28T18:09:45.074Z,91.92
2022-09-28T18:14:48.047Z,100.00
2022-09-28T18:19:51.185Z,100.00
2022-09-28T18:24:55.439Z,100.00
2022-09-28T18:29:58.261Z,100.00
2022-09-28T18:35:00.815Z,100.00
2022-09-28T18:40:05.961Z,100.00
2022-09-28T18:45:11.372Z,100.00
2022-09-28T18:50:15.378Z,98.03
2022-09-28T18:55:20.026Z,94.89
2022-09-28T19:00:22.788Z,97.16
2022-09-28T19:05:28.631Z,95.33
2022-09-28T19:10:32.611Z,96.01
2022-09-28T19:15:35.323Z,93.69
2022-09-28T19:20:38.009Z,93.41
2022-09-28T19:25:42.173Z,91.48
2022-09-28T19:30:44.987Z,90.20
2022-09-28T19:35:55.996Z,90.48
2022-09-28T19:41:00.354Z,92.49
2022-09-28T19:46:05.394Z,93.85
2022-09-28T19:51:08.747Z,91.14
2022-09-28T19:56:12.817Z,93.56
2022-09-28T20:01:15.590Z,93.01
2022-09-28T20:06:18.296Z,93.42
2022-09-28T20:11:22.590Z,95.93
2022-09-28T20:16:25.395Z,99.24
2022-09-28T20:21:28.420Z,95.81
2022-09-28T20:26:37.231Z,95.34
2022-09-28T20:31:39.802Z,99.87
2022-09-28T20:36:43.137Z,98.82
2022-09-28T20:41:49.234Z,97.08
2022-09-28T20:46:52.353Z,100.00
2022-09-28T20:51:55.207Z,100.00
2022-09-28T20:56:59.115Z,100.00
2022-09-28T21:02:01.754Z,98.83
2022-09-28T21:07:04.445Z,96.78
2022-09-28T21:12:09.223Z,100.00
2022-09-28T21:17:11.758Z,99.88
2022-09-28T21:22:14.482Z,100.00
2022-09-28T21:27:20.565Z,100.00
2022-09-28T21:32:24.210Z,100.00
2022-09-28T21:37:26.736Z,98.75
2022-09-28T21:42:30.949Z,100.00
2022-09-28T21:47:33.776Z,100.00
2022-09-28T21:52:36.320Z,100.00
2022-09-28T21:57:40.363Z,100.00
2022-09-28T22:02:43.226Z,98.98
2022-09-28T22:07:45.856Z,93.68
2022-09-28T22:12:50.072Z,92.66
2022-09-28T22:17:52.796Z,92.22
2022-09-28T22:22:55.377Z,90.32
2022-09-28T22:27:59.350Z,90.51
2022-09-28T22:33:02.592Z,90.90
2022-09-28T22:38:05.420Z,91.44
2022-09-28T22:43:09.329Z,89.46
2022-09-28T22:48:12.193Z,90.91
2022-09-28T22:53:15.028Z,90.51
2022-09-28T22:58:18.973Z,89.21
2022-09-28T23:03:21.773Z,89.99
2022-09-28T23:08:25.289Z,89.85
2022-09-28T23:13:30.979Z,89.51
2022-09-28T23:18:35.457Z,91.23
2022-09-28T23:23:37.980Z,95.80
2022-09-28T23:28:42.338Z,94.49
2022-09-28T23:33:45.199Z,93.20
2022-09-28T23:38:47.802Z,95.21
2022-09-28T23:43:51.945Z,100.00
2022-09-28T23:48:54.859Z,100.00
2022-09-28T23:53:57.386Z,100.00
2022-09-28T23:59:01.442Z,100.00
